createdAt,value
2023-04-29T00:00:39.272Z,9.93
2023-04-29T00:03:05.903Z,9.93
2023-04-29T00:05:32.539Z,9.93
2023-04-29T00:07:59.087Z,9.90
2023-04-29T00:10:25.562Z,9.89
2023-04-29T00:12:52.063Z,9.90
2023-04-29T00:15:18.628Z,9.89
2023-04-29T00:17:45.563Z,9.89
2023-04-29T00:20:12.590Z,9.88
2023-04-29T00:22:39.800Z,9.87
2023-04-29T00:25:07.303Z,9.87
2023-04-29T00:27:33.753Z,9.86
2023-04-29T00:30:00.164Z,9.87
2023-04-29T00:32:26.579Z,9.87
2023-04-29T00:34:53.092Z,9.88
2023-04-29T00:37:19.526Z,9.86
2023-04-29T00:39:45.893Z,9.86
2023-04-29T00:42:12.608Z,9.88
2023-04-29T00:44:39.068Z,9.88
2023-04-29T00:47:05.608Z,9.88
2023-04-29T00:49:31.988Z,9.85
2023-04-29T00:51:59.259Z,9.85
2023-04-29T00:54:25.778Z,9.84
2023-04-29T00:56:53.092Z,9.85
2023-04-29T00:59:20.055Z,9.83
2023-04-29T01:01:46.876Z,9.83
2023-04-29T01:04:13.648Z,9.82
2023-04-29T01:06:57.329Z,9.83
2023-04-29T01:09:57.316Z,9.82
2023-04-29T01:12:41.578Z,9.81
2023-04-29T01:15:15.437Z,9.80
2023-04-29T01:17:48.070Z,9.78
2023-04-29T01:20:15.500Z,9.78
2023-04-29T01:22:41.981Z,9.78
2023-04-29T01:25:10.026Z,9.76
2023-04-29T01:27:52.629Z,9.73
2023-04-29T01:30:58.145Z,9.74
2023-04-29T01:33:44.418Z,9.74
2023-04-29T01:36:33.846Z,9.71
2023-04-29T01:39:11.931Z,9.70
2023-04-29T01:41:52.114Z,9.69
2023-04-29T01:44:25.546Z,9.70
2023-04-29T01:46:54.440Z,9.70
2023-04-29T01:49:22.332Z,9.69
2023-04-29T01:51:48.792Z,9.68
2023-04-29T01:54:15.161Z,9.69
2023-04-29T01:56:41.645Z,9.68
2023-04-29T01:59:08.286Z,9.69
2023-04-29T02:01:34.707Z,9.70
2023-04-29T02:04:01.557Z,9.70
2023-04-29T02:06:28.110Z,9.70
2023-04-29T02:08:54.752Z,9.70
2023-04-29T02:11:21.219Z,9.69
2023-04-29T02:13:47.677Z,9.69
2023-04-29T02:16:15.584Z,9.68
2023-04-29T02:18:42.591Z,9.68
2023-04-29T02:21:09.062Z,9.68
2023-04-29T02:23:36.588Z,9.71
2023-04-29T02:26:06.266Z,9.71
2023-04-29T02:28:34.850Z,9.70
2023-04-29T02:31:01.872Z,9.71
2023-04-29T02:33:28.629Z,9.72
2023-04-29T02:35:55.184Z,9.72
2023-04-29T02:38:21.771Z,9.73
2023-04-29T02:40:48.206Z,9.74
2023-04-29T02:43:14.747Z,9.74
2023-04-29T02:45:41.443Z,9.73
2023-04-29T02:48:07.995Z,9.73
2023-04-29T02:50:34.515Z,9.72
2023-04-29T02:53:00.960Z,9.72
2023-04-29T02:55:27.331Z,9.72
2023-04-29T02:57:53.694Z,9.74
2023-04-29T03:00:21.130Z,9.76
2023-04-29T03:02:48.345Z,9.76
2023-04-29T03:05:15.459Z,9.75
2023-04-29T03:07:41.879Z,9.75
2023-04-29T03:10:09.046Z,9.75
2023-04-29T03:12:35.606Z,9.73
2023-04-29T03:15:02.128Z,9.73
2023-04-29T03:17:28.479Z,9.71
2023-04-29T03:19:55.073Z,9.71
2023-04-29T03:22:21.594Z,9.72
2023-04-29T03:24:48.131Z,9.72
2023-04-29T03:27:14.539Z,9.67
2023-04-29T03:29:41.258Z,9.68
2023-04-29T03:32:07.696Z,9.69
2023-04-29T03:34:34.413Z,9.69
2023-04-29T03:37:01.288Z,9.70
2023-04-29T03:39:32.221Z,9.69
2023-04-29T03:41:59.606Z,9.70
2023-04-29T03:44:26.343Z,9.67
2023-04-29T03:46:52.806Z,9.65
2023-04-29T03:49:19.165Z,9.63
2023-04-29T03:51:45.616Z,9.65
2023-04-29T03:54:13.115Z,9.64
2023-04-29T03:56:39.736Z,9.65
2023-04-29T03:59:06.203Z,9.64
2023-04-29T04:01:32.605Z,9.64
2023-04-29T04:03:59.110Z,9.62
2023-04-29T04:06:26.139Z,9.62
2023-04-29T04:08:52.514Z,9.63
2023-04-29T04:11:18.898Z,9.63
2023-04-29T04:13:45.515Z,9.62
2023-04-29T04:16:12.058Z,9.60
2023-04-29T04:18:39.081Z,9.60
2023-04-29T04:21:07.334Z,9.61
2023-04-29T04:23:33.827Z,9.60
2023-04-29T04:26:00.373Z,9.58
2023-04-29T04:28:26.744Z,9.59
2023-04-29T04:30:53.128Z,9.60
2023-04-29T04:33:19.519Z,9.60
2023-04-29T04:35:45.924Z,9.62
2023-04-29T04:38:12.527Z,9.61
2023-04-29T04:40:42.282Z,9.60
2023-04-29T04:43:08.697Z,9.62
2023-04-29T04:45:35.200Z,9.61
2023-04-29T04:48:01.717Z,9.61
2023-04-29T04:50:29.387Z,9.61
2023-04-29T04:52:56.513Z,9.63
2023-04-29T04:55:23.777Z,9.63
2023-04-29T04:57:50.914Z,9.65
2023-04-29T05:00:17.983Z,9.64
2023-04-29T05:02:44.467Z,9.64
2023-04-29T05:05:11.050Z,9.64
2023-04-29T05:07:37.528Z,9.66
2023-04-29T05:10:04.303Z,9.64
2023-04-29T05:12:31.220Z,9.68
2023-04-29T05:14:58.194Z,9.67
2023-04-29T05:17:24.802Z,9.67
2023-04-29T05:19:51.515Z,9.69
2023-04-29T05:22:18.091Z,9.69
2023-04-29T05:24:44.510Z,9.71
2023-04-29T05:27:10.934Z,9.73
2023-04-29T05:29:38.097Z,9.74
2023-04-29T05:32:04.878Z,9.73
2023-04-29T05:34:31.343Z,9.77
2023-04-29T05:36:57.703Z,9.81
2023-04-29T05:39:24.094Z,9.83
2023-04-29T05:41:50.590Z,9.85
2023-04-29T05:44:16.985Z,9.85
2023-04-29T05:46:43.489Z,9.87
2023-04-29T05:49:09.941Z,9.88
2023-04-29T05:51:36.423Z,9.90
2023-04-29T05:54:02.853Z,9.92
2023-04-29T05:56:29.410Z,9.94
2023-04-29T05:58:55.794Z,9.97
2023-04-29T06:01:22.186Z,9.98
2023-04-29T06:03:48.756Z,10.02
2023-04-29T06:06:15.539Z,10.04
2023-04-29T06:08:42.272Z,10.06
2023-04-29T06:11:08.882Z,10.08
2023-04-29T06:13:35.609Z,10.10
2023-04-29T06:16:02.028Z,10.13
2023-04-29T06:18:28.600Z,10.13
2023-04-29T06:20:54.956Z,10.14
2023-04-29T06:23:21.339Z,10.17
2023-04-29T06:25:47.749Z,10.19
2023-04-29T06:28:14.123Z,10.21
2023-04-29T06:30:40.593Z,10.26
2023-04-29T06:33:08.210Z,10.30
2023-04-29T06:35:39.098Z,10.31
2023-04-29T06:38:05.813Z,10.36
2023-04-29T06:40:32.258Z,10.36
2023-04-29T06:42:58.805Z,10.35
2023-04-29T06:45:25.229Z,10.34
2023-04-29T06:47:52.233Z,10.33
2023-04-29T06:50:18.807Z,10.35
2023-04-29T06:52:45.247Z,10.39
2023-04-29T06:55:12.504Z,10.43
2023-04-29T06:57:38.932Z,10.50
2023-04-29T07:00:06.173Z,10.50
2023-04-29T07:02:33.053Z,10.55
2023-04-29T07:04:59.992Z,10.58
2023-04-29T07:07:27.710Z,10.60
2023-04-29T07:09:54.679Z,10.60
2023-04-29T07:12:21.464Z,10.58
2023-04-29T07:14:48.387Z,10.56
2023-04-29T07:17:14.865Z,10.59
2023-04-29T07:19:41.360Z,10.61
2023-04-29T07:22:07.754Z,10.63
2023-04-29T07:24:34.299Z,10.67
2023-04-29T07:27:00.697Z,10.67
2023-04-29T07:29:27.162Z,10.69
2023-04-29T07:31:53.697Z,10.73
2023-04-29T07:34:20.279Z,10.78
2023-04-29T07:36:58.813Z,10.85
2023-04-29T07:39:47.197Z,10.88
2023-04-29T07:42:13.625Z,10.90
2023-04-29T07:44:40.114Z,10.95
2023-04-29T07:47:07.037Z,11.00
2023-04-29T07:49:33.431Z,11.02
2023-04-29T07:52:00.348Z,11.02
2023-04-29T07:54:27.767Z,11.01
2023-04-29T07:56:54.218Z,11.01
2023-04-29T07:59:20.591Z,11.05
2023-04-29T08:01:46.944Z,11.09
2023-04-29T08:04:13.650Z,11.08
2023-04-29T08:06:41.768Z,11.16
2023-04-29T08:09:08.308Z,11.26
2023-04-29T08:11:34.775Z,11.34
2023-04-29T08:14:01.147Z,11.41
2023-04-29T08:16:28.023Z,11.48
2023-04-29T08:18:54.467Z,11.58
2023-04-29T08:21:20.918Z,11.71
2023-04-29T08:23:47.308Z,11.82
2023-04-29T08:26:13.869Z,11.91
2023-04-29T08:28:40.746Z,12.04
2023-04-29T08:31:07.739Z,12.08
2023-04-29T08:33:35.263Z,12.07
2023-04-29T08:36:03.623Z,12.12
2023-04-29T08:38:30.157Z,12.07
2023-04-29T08:40:56.723Z,12.08
2023-04-29T08:43:23.394Z,12.12
2023-04-29T08:45:50.162Z,12.12
2023-04-29T08:48:17.893Z,12.12
2023-04-29T08:50:45.253Z,12.04
2023-04-29T08:53:13.494Z,12.10
2023-04-29T08:55:47.425Z,12.18
2023-04-29T08:58:16.186Z,12.30
2023-04-29T09:00:44.637Z,12.44
2023-04-29T09:03:26.889Z,12.55
2023-04-29T09:05:55.287Z,12.70
2023-04-29T09:08:23.978Z,12.77
2023-04-29T09:10:52.933Z,12.77
2023-04-29T09:13:29.429Z,12.86
2023-04-29T09:15:56.328Z,12.93
2023-04-29T09:18:46.895Z,12.97
2023-04-29T09:21:16.269Z,12.91
2023-04-29T09:23:43.360Z,12.85
2023-04-29T09:26:09.826Z,12.80
2023-04-29T09:28:36.308Z,12.87
2023-04-29T09:31:08.132Z,12.92
2023-04-29T09:33:58.670Z,12.87
2023-04-29T09:36:49.620Z,12.92
2023-04-29T09:39:20.055Z,12.97
2023-04-29T09:41:52.622Z,13.07
2023-04-29T09:44:33.932Z,13.10
2023-04-29T09:47:02.837Z,13.12
2023-04-29T09:49:41.122Z,13.24
2023-04-29T09:52:09.736Z,13.32
2023-04-29T09:54:38.819Z,13.33
2023-04-29T09:57:07.227Z,13.35
2023-04-29T09:59:36.145Z,13.33
2023-04-29T10:02:10.270Z,13.37
2023-04-29T10:04:40.464Z,13.43
2023-04-29T10:07:08.548Z,13.50
2023-04-29T10:09:37.927Z,13.57
2023-04-29T10:12:07.417Z,13.50
2023-04-29T10:14:44.788Z,13.54
2023-04-29T10:17:17.476Z,13.62
2023-04-29T10:20:06.402Z,13.67
2023-04-29T10:22:42.564Z,13.73
2023-04-29T10:25:11.054Z,13.78
2023-04-29T10:27:38.041Z,13.87
2023-04-29T10:30:07.501Z,13.94
2023-04-29T10:32:49.802Z,14.03
2023-04-29T10:35:24.426Z,14.11
2023-04-29T10:37:52.941Z,14.13
2023-04-29T10:40:27.894Z,14.03
2023-04-29T10:42:55.656Z,14.07
2023-04-29T10:45:31.731Z,14.02
2023-04-29T10:48:08.802Z,13.95
2023-04-29T10:50:48.871Z,13.96
2023-04-29T10:53:16.859Z,13.96
2023-04-29T10:55:47.602Z,14.05
2023-04-29T10:58:39.058Z,14.13
2023-04-29T11:01:07.801Z,14.20
2023-04-29T11:03:48.250Z,14.19
2023-04-29T11:06:15.806Z,14.20
2023-04-29T11:08:43.399Z,14.28
2023-04-29T11:11:10.232Z,14.34
2023-04-29T11:13:40.728Z,14.39
2023-04-29T11:16:08.959Z,14.39
2023-04-29T11:18:37.101Z,14.46
2023-04-29T11:21:06.529Z,14.53
2023-04-29T11:23:41.208Z,14.45
2023-04-29T11:26:08.115Z,14.50
2023-04-29T11:28:34.868Z,14.56
2023-04-29T11:31:03.642Z,14.55
2023-04-29T11:33:33.786Z,14.53
2023-04-29T11:36:00.481Z,14.63
2023-04-29T11:38:30.980Z,14.64
2023-04-29T11:40:58.187Z,14.61
2023-04-29T11:43:25.477Z,14.61
2023-04-29T11:45:53.289Z,14.60
2023-04-29T11:48:21.208Z,14.54
2023-04-29T11:50:50.162Z,14.60
2023-04-29T11:53:19.458Z,14.61
2023-04-29T11:55:46.396Z,14.69
2023-04-29T11:58:14.660Z,14.73
2023-04-29T12:00:41.088Z,14.63
2023-04-29T12:03:14.518Z,14.56
2023-04-29T12:05:49.542Z,14.62
2023-04-29T12:08:20.213Z,14.64
2023-04-29T12:10:47.831Z,14.63
2023-04-29T12:13:15.680Z,14.72
2023-04-29T12:15:42.403Z,14.81
2023-04-29T12:18:09.224Z,14.79
2023-04-29T12:20:35.900Z,14.75
2023-04-29T12:23:16.122Z,14.81
2023-04-29T12:25:42.718Z,14.88
2023-04-29T12:28:13.219Z,14.91
2023-04-29T12:30:39.635Z,14.97
2023-04-29T12:33:09.203Z,14.92
2023-04-29T12:35:36.976Z,14.97
2023-04-29T12:38:03.650Z,15.03
2023-04-29T12:40:30.436Z,15.07
2023-04-29T12:42:56.972Z,15.13
2023-04-29T12:45:27.950Z,15.17
2023-04-29T12:47:57.160Z,15.17
2023-04-29T12:50:37.898Z,15.28
2023-04-29T12:53:06.511Z,15.30
2023-04-29T12:55:34.707Z,15.28
2023-04-29T12:58:02.605Z,15.29
2023-04-29T13:00:29.870Z,15.33
2023-04-29T13:02:56.606Z,15.34
2023-04-29T13:05:23.075Z,15.38
2023-04-29T13:07:50.148Z,15.43
2023-04-29T13:10:17.531Z,15.45
2023-04-29T13:12:43.935Z,15.44
2023-04-29T13:15:11.352Z,15.50
2023-04-29T13:17:37.921Z,15.52
2023-04-29T13:20:05.678Z,15.55
2023-04-29T13:22:32.730Z,15.59
2023-04-29T13:24:59.133Z,15.57
2023-04-29T13:27:25.669Z,15.56
2023-04-29T13:29:52.179Z,15.59
2023-04-29T13:32:19.060Z,15.55
2023-04-29T13:34:45.629Z,15.41
2023-04-29T13:37:12.360Z,15.37
2023-04-29T13:39:39.721Z,15.38
2023-04-29T13:42:06.581Z,15.45
2023-04-29T13:44:51.027Z,15.51
2023-04-29T13:47:25.113Z,15.59
2023-04-29T13:55:23.225Z,15.53
2023-04-29T14:00:25.069Z,15.49
2023-04-29T14:05:25.611Z,15.52
2023-04-29T14:07:52.254Z,15.50
2023-04-29T14:10:18.641Z,15.47
2023-04-29T14:12:45.170Z,15.46
2023-04-29T14:15:12.091Z,15.45
2023-04-29T14:17:38.610Z,15.42
2023-04-29T14:20:05.703Z,15.45
2023-04-29T14:22:32.286Z,15.43
2023-04-29T14:24:58.672Z,15.40
2023-04-29T14:27:25.022Z,15.42
2023-04-29T14:29:51.498Z,15.40
2023-04-29T14:32:17.937Z,15.40
2023-04-29T14:34:44.396Z,15.34
2023-04-29T14:37:11.187Z,15.37
2023-04-29T14:39:37.773Z,15.36
2023-04-29T14:42:04.642Z,15.40
2023-04-29T14:44:31.092Z,15.40
2023-04-29T14:46:57.595Z,15.37
2023-04-29T14:49:23.949Z,15.37
2023-04-29T14:51:50.702Z,15.30
2023-04-29T14:54:17.804Z,15.29
2023-04-29T14:56:44.235Z,15.26
2023-04-29T14:59:11.144Z,15.22
2023-04-29T15:01:39.691Z,15.18
2023-04-29T15:04:06.320Z,15.18
2023-04-29T15:06:32.938Z,15.18
2023-04-29T15:08:59.312Z,15.18
2023-04-29T15:11:26.170Z,15.20
2023-04-29T15:13:52.595Z,15.17
2023-04-29T15:16:19.416Z,15.11
2023-04-29T15:18:46.535Z,15.07
2023-04-29T15:21:13.113Z,15.04
2023-04-29T15:23:39.576Z,14.99
2023-04-29T15:26:07.139Z,14.96
2023-04-29T15:28:33.622Z,14.95
2023-04-29T15:31:01.904Z,14.99
2023-04-29T15:33:28.303Z,15.00
2023-04-29T15:35:56.623Z,15.04
2023-04-29T15:38:23.214Z,15.07
2023-04-29T15:40:49.930Z,15.05
2023-04-29T15:43:16.293Z,15.00
2023-04-29T15:45:42.850Z,14.97
2023-04-29T15:48:09.482Z,14.94
2023-04-29T15:50:35.971Z,14.91
2023-04-29T15:53:02.465Z,14.89
2023-04-29T15:55:28.984Z,14.87
2023-04-29T15:57:55.862Z,14.89
2023-04-29T16:00:22.362Z,14.92
2023-04-29T16:02:48.808Z,14.94
2023-04-29T16:05:15.475Z,14.93
2023-04-29T16:07:41.871Z,14.90
2023-04-29T16:10:08.491Z,14.86
2023-04-29T16:12:34.844Z,14.84
2023-04-29T16:15:01.221Z,14.84
2023-04-29T16:17:28.430Z,14.83
2023-04-29T16:19:55.223Z,14.83
2023-04-29T16:22:21.863Z,14.81
2023-04-29T16:24:49.844Z,14.81
2023-04-29T16:27:17.473Z,14.79
2023-04-29T16:29:43.876Z,14.75
2023-04-29T16:32:11.515Z,14.68
2023-04-29T16:34:37.909Z,14.63
2023-04-29T16:37:04.299Z,14.60
2023-04-29T16:39:31.128Z,14.56
2023-04-29T16:41:59.420Z,14.53
2023-04-29T16:44:25.903Z,14.48
2023-04-29T16:46:53.377Z,14.42
2023-04-29T16:49:26.031Z,14.32
2023-04-29T16:51:52.996Z,14.26
2023-04-29T16:54:19.365Z,14.17
2023-04-29T16:56:45.796Z,14.11
2023-04-29T16:59:12.541Z,14.05
2023-04-29T17:01:39.229Z,14.01
2023-04-29T17:04:08.143Z,13.94
2023-04-29T17:06:35.596Z,13.91
2023-04-29T17:09:02.482Z,13.84
2023-04-29T17:11:28.878Z,13.81
2023-04-29T17:13:55.265Z,13.78
2023-04-29T17:16:21.701Z,13.75
2023-04-29T17:18:48.126Z,13.79
2023-04-29T17:21:14.553Z,13.86
2023-04-29T17:23:41.052Z,13.94
2023-04-29T17:26:07.522Z,14.02
2023-04-29T17:28:33.906Z,14.07
2023-04-29T17:31:01.348Z,14.10
2023-04-29T17:33:34.004Z,14.12
2023-04-29T17:36:05.867Z,14.15
2023-04-29T17:38:33.361Z,14.12
2023-04-29T17:41:01.482Z,14.10
2023-04-29T17:43:27.979Z,14.11
2023-04-29T17:45:54.478Z,14.10
2023-04-29T17:48:22.420Z,14.06
2023-04-29T17:50:48.766Z,14.02
2023-04-29T17:53:15.253Z,13.96
2023-04-29T17:55:43.116Z,13.90
2023-04-29T17:58:09.493Z,13.81
2023-04-29T18:00:36.034Z,13.74
2023-04-29T18:03:03.189Z,13.66
2023-04-29T18:05:29.930Z,13.54
2023-04-29T18:07:56.577Z,13.47
2023-04-29T18:10:22.976Z,13.41
2023-04-29T18:12:49.379Z,13.31
2023-04-29T18:15:16.614Z,13.23
2023-04-29T18:17:44.395Z,13.16
2023-04-29T18:20:12.792Z,13.10
2023-04-29T18:22:39.442Z,13.03
2023-04-29T18:25:06.281Z,12.98
2023-04-29T18:27:32.657Z,12.91
2023-04-29T18:29:59.158Z,12.83
2023-04-29T18:32:25.713Z,12.73
2023-04-29T18:34:52.265Z,12.64
2023-04-29T18:37:18.656Z,12.55
2023-04-29T18:39:45.029Z,12.52
2023-04-29T18:42:11.694Z,12.45
2023-04-29T18:44:38.971Z,12.40
2023-04-29T18:47:05.841Z,12.34
2023-04-29T18:49:32.343Z,12.28
2023-04-29T18:52:01.317Z,12.23
2023-04-29T18:54:28.104Z,12.16
2023-04-29T18:56:54.491Z,12.09
2023-04-29T18:59:21.009Z,12.01
2023-04-29T19:01:48.378Z,11.91
2023-04-29T19:04:15.493Z,11.84
2023-04-29T19:06:42.593Z,11.78
2023-04-29T19:09:09.262Z,11.70
2023-04-29T19:11:36.252Z,11.64
2023-04-29T19:14:04.296Z,11.59
2023-04-29T19:16:30.841Z,11.51
2023-04-29T19:18:57.279Z,11.44
2023-04-29T19:21:23.733Z,11.39
2023-04-29T19:23:50.921Z,11.30
2023-04-29T19:26:17.446Z,11.22
2023-04-29T19:28:43.824Z,11.11
2023-04-29T19:31:11.640Z,11.04
2023-04-29T19:33:38.283Z,10.96
2023-04-29T19:36:04.831Z,10.88
2023-04-29T19:38:31.448Z,10.82
2023-04-29T19:40:57.969Z,10.79
2023-04-29T19:43:24.499Z,10.73
2023-04-29T19:45:50.971Z,10.68
2023-04-29T19:48:17.518Z,10.64
2023-04-29T19:50:44.020Z,10.67
2023-04-29T19:53:11.553Z,10.63
2023-04-29T19:55:39.878Z,10.59
2023-04-29T19:58:07.230Z,10.59
2023-04-29T20:00:34.129Z,10.54
2023-04-29T20:03:00.749Z,10.53
2023-04-29T20:05:28.331Z,10.53
2023-04-29T20:07:55.482Z,10.51
2023-04-29T20:10:21.976Z,10.48
2023-04-29T20:12:48.439Z,10.46
2023-04-29T20:15:14.895Z,10.46
2023-04-29T20:17:41.559Z,10.47
2023-04-29T20:20:09.040Z,10.44
2023-04-29T20:22:35.750Z,10.44
2023-04-29T20:25:02.981Z,10.38
2023-04-29T20:27:29.520Z,10.36
2023-04-29T20:29:56.919Z,10.33
2023-04-29T20:32:23.633Z,10.31
2023-04-29T20:34:50.054Z,10.29
2023-04-29T20:37:16.487Z,10.25
2023-04-29T20:39:43.051Z,10.20
2023-04-29T20:42:09.471Z,10.17
2023-04-29T20:44:36.727Z,10.14
2023-04-29T20:47:03.717Z,10.09
2023-04-29T20:49:30.150Z,10.06
2023-04-29T20:51:57.100Z,10.03
2023-04-29T20:54:23.651Z,10.01
2023-04-29T20:56:50.086Z,10.00
2023-04-29T20:59:16.660Z,9.95
2023-04-29T21:01:43.217Z,9.92
2023-04-29T21:04:09.718Z,9.92
2023-04-29T21:06:36.218Z,9.90
2023-04-29T21:09:02.641Z,9.89
2023-04-29T21:11:29.116Z,9.92
2023-04-29T21:13:55.612Z,9.89
2023-04-29T21:16:22.128Z,9.84
2023-04-29T21:18:48.549Z,9.85
2023-04-29T21:21:14.935Z,9.84
2023-04-29T21:23:41.643Z,9.81
2023-04-29T21:26:08.049Z,9.76
2023-04-29T21:28:34.562Z,9.72
2023-04-29T21:31:01.007Z,9.66
2023-04-29T21:33:27.448Z,9.63
2023-04-29T21:35:53.843Z,9.55
2023-04-29T21:38:20.327Z,9.51
2023-04-29T21:40:47.945Z,9.49
2023-04-29T21:43:16.756Z,9.44
2023-04-29T21:45:44.508Z,9.42
2023-04-29T21:48:20.086Z,9.40
2023-04-29T21:50:46.736Z,9.35
2023-04-29T21:53:16.854Z,9.32
2023-04-29T21:55:43.330Z,9.29
2023-04-29T21:58:11.003Z,9.28
2023-04-29T22:00:39.168Z,9.24
2023-04-29T22:03:09.720Z,9.25
2023-04-29T22:05:36.701Z,9.24
2023-04-29T22:08:06.997Z,9.24
2023-04-29T22:10:33.573Z,9.21
2023-04-29T22:12:59.998Z,9.19
2023-04-29T22:15:28.653Z,9.14
2023-04-29T22:17:55.691Z,9.11
2023-04-29T22:20:22.124Z,9.10
2023-04-29T22:22:48.605Z,9.09
2023-04-29T22:25:15.048Z,9.05
2023-04-29T22:27:41.427Z,9.02
2023-04-29T22:30:08.422Z,9.00
2023-04-29T22:32:34.870Z,8.98
2023-04-29T22:35:01.517Z,8.95
2023-04-29T22:37:27.952Z,8.94
2023-04-29T22:39:54.748Z,8.95
2023-04-29T22:42:21.507Z,8.93
2023-04-29T22:44:47.934Z,8.94
2023-04-29T22:47:14.474Z,8.90
2023-04-29T22:49:41.073Z,8.87
2023-04-29T22:52:07.664Z,8.83
2023-04-29T22:54:34.184Z,8.80
2023-04-29T22:57:00.717Z,8.77
2023-04-29T22:59:27.246Z,8.75
2023-04-29T23:01:53.743Z,8.71
2023-04-29T23:04:20.472Z,8.66
2023-04-29T23:06:47.024Z,8.66
2023-04-29T23:09:13.570Z,8.64
2023-04-29T23:11:40.019Z,8.62
2023-04-29T23:14:06.422Z,8.59
2023-04-29T23:16:33.134Z,8.56
2023-04-29T23:18:59.556Z,8.53
2023-04-29T23:21:27.141Z,8.50
2023-04-29T23:23:54.170Z,8.46
2023-04-29T23:26:20.888Z,8.46
2023-04-29T23:28:47.303Z,8.42
2023-04-29T23:31:13.773Z,8.40
2023-04-29T23:33:40.168Z,8.38
2023-04-29T23:36:06.581Z,8.37
2023-04-29T23:38:32.991Z,8.36
2023-04-29T23:40:59.390Z,8.36
2023-04-29T23:43:25.798Z,8.34
2023-04-29T23:45:52.926Z,8.32
2023-04-29T23:48:19.369Z,8.30
2023-04-29T23:50:47.197Z,8.27
2023-04-29T23:53:13.677Z,8.25
2023-04-29T23:55:40.077Z,8.23
2023-04-29T23:58:07.578Z,8.21
